sensor_id;sensor_type;location;lat;lon;timestamp;P1;durP1;ratioP1;P2;durP2;ratioP2
31061;SDS011;17724;53.546;9.974;2023-02-01T00:01:45;20.17;;;5.10;;
31061;SDS011;17724;53.546;9.974;2023-02-01T00:05:56;18.80;;;4.23;;
31061;SDS011;17724;53.546;9.974;2023-02-01T00:09:58;22.70;;;4.43;;
31061;SDS011;17724;53.546;9.974;2023-02-01T00:14:07;24.97;;;9.03;;
31061;SDS011;17724;53.546;9.974;2023-02-01T00:18:11;21.63;;;6.93;;
31061;SDS011;17724;53.546;9.974;2023-02-01T00:22:12;24.27;;;4.93;;
31061;SDS011;17724;53.546;9.974;2023-02-01T00:26:18;21.50;;;5.57;;
31061;SDS011;17724;53.546;9.974;2023-02-01T00:30:39;17.90;;;4.17;;
31061;SDS011;17724;53.546;9.974;2023-02-01T00:34:54;21.40;;;4.63;;
31061;SDS011;17724;53.546;9.974;2023-02-01T00:38:58;21.50;;;4.70;;
31061;SDS011;17724;53.546;9.974;2023-02-01T00:42:59;20.70;;;4.60;;
31061;SDS011;17724;53.546;9.974;2023-02-01T00:47:04;24.30;;;4.53;;
31061;SDS011;17724;53.546;9.974;2023-02-01T00:51:07;22.87;;;4.77;;
31061;SDS011;17724;53.546;9.974;2023-02-01T00:55:19;23.23;;;5.23;;
31061;SDS011;17724;53.546;9.974;2023-02-01T00:59:30;24.60;;;5.40;;
31061;SDS011;17724;53.546;9.974;2023-02-01T01:03:35;24.37;;;5.03;;
31061;SDS011;17724;53.546;9.974;2023-02-01T01:07:44;24.27;;;5.00;;
31061;SDS011;17724;53.546;9.974;2023-02-01T01:11:55;22.47;;;5.00;;
31061;SDS011;17724;53.546;9.974;2023-02-01T01:16:00;25.60;;;6.27;;
31061;SDS011;17724;53.546;9.974;2023-02-01T01:20:03;24.77;;;6.23;;
31061;SDS011;17724;53.546;9.974;2023-02-01T01:24:04;26.77;;;4.80;;
31061;SDS011;17724;53.546;9.974;2023-02-01T01:28:06;21.57;;;5.33;;
31061;SDS011;17724;53.546;9.974;2023-02-01T01:32:19;20.50;;;4.23;;
31061;SDS011;17724;53.546;9.974;2023-02-01T01:36:21;26.17;;;5.50;;
31061;SDS011;17724;53.546;9.974;2023-02-01T01:40:22;24.97;;;4.70;;
31061;SDS011;17724;53.546;9.974;2023-02-01T01:49:17;23.70;;;6.60;;
31061;SDS011;17724;53.546;9.974;2023-02-01T01:53:23;26.50;;;6.00;;
31061;SDS011;17724;53.546;9.974;2023-02-01T01:57:27;26.63;;;5.10;;
31061;SDS011;17724;53.546;9.974;2023-02-01T02:01:33;20.70;;;4.00;;
31061;SDS011;17724;53.546;9.974;2023-02-01T02:05:33;24.47;;;7.20;;
31061;SDS011;17724;53.546;9.974;2023-02-01T02:09:34;24.90;;;5.33;;
31061;SDS011;17724;53.546;9.974;2023-02-01T02:13:36;23.10;;;4.70;;
31061;SDS011;17724;53.546;9.974;2023-02-01T02:17:57;22.23;;;5.30;;
31061;SDS011;17724;53.546;9.974;2023-02-01T02:27:16;30.47;;;8.37;;
31061;SDS011;17724;53.546;9.974;2023-02-01T02:40:27;21.80;;;5.30;;
31061;SDS011;17724;53.546;9.974;2023-02-01T02:49:23;25.13;;;5.87;;
31061;SDS011;17724;53.546;9.974;2023-02-01T02:57:57;23.10;;;5.90;;
31061;SDS011;17724;53.546;9.974;2023-02-01T03:02:16;24.80;;;5.47;;
31061;SDS011;17724;53.546;9.974;2023-02-01T03:06:37;22.13;;;5.10;;
31061;SDS011;17724;53.546;9.974;2023-02-01T03:15:00;21.37;;;4.03;;
31061;SDS011;17724;53.546;9.974;2023-02-01T03:23:23;21.27;;;4.30;;
31061;SDS011;17724;53.546;9.974;2023-02-01T03:31:51;20.97;;;4.63;;
31061;SDS011;17724;53.546;9.974;2023-02-01T03:40:27;17.80;;;3.60;;
31061;SDS011;17724;53.546;9.974;2023-02-01T03:54:08;13.23;;;2.30;;
31061;SDS011;17724;53.546;9.974;2023-02-01T03:58:20;16.80;;;2.30;;
31061;SDS011;17724;53.546;9.974;2023-02-01T04:02:31;18.37;;;4.07;;
31061;SDS011;17724;53.546;9.974;2023-02-01T04:06:36;12.50;;;2.77;;
31061;SDS011;17724;53.546;9.974;2023-02-01T04:10:43;20.10;;;3.83;;
31061;SDS011;17724;53.546;9.974;2023-02-01T04:14:44;17.70;;;3.60;;
31061;SDS011;17724;53.546;9.974;2023-02-01T04:18:48;15.57;;;2.87;;
31061;SDS011;17724;53.546;9.974;2023-02-01T04:22:52;16.07;;;2.80;;
31061;SDS011;17724;53.546;9.974;2023-02-01T04:26:57;15.43;;;2.63;;
31061;SDS011;17724;53.546;9.974;2023-02-01T04:30:57;14.90;;;3.07;;
31061;SDS011;17724;53.546;9.974;2023-02-01T04:34:58;14.33;;;2.67;;
31061;SDS011;17724;53.546;9.974;2023-02-01T04:38:59;18.33;;;4.07;;
31061;SDS011;17724;53.546;9.974;2023-02-01T04:43:02;13.83;;;2.73;;
31061;SDS011;17724;53.546;9.974;2023-02-01T04:47:03;13.97;;;3.00;;
31061;SDS011;17724;53.546;9.974;2023-02-01T04:51:04;16.83;;;2.63;;
31061;SDS011;17724;53.546;9.974;2023-02-01T04:55:05;17.37;;;3.53;;
31061;SDS011;17724;53.546;9.974;2023-02-01T04:59:05;11.80;;;2.40;;
31061;SDS011;17724;53.546;9.974;2023-02-01T05:03:06;16.17;;;2.37;;
31061;SDS011;17724;53.546;9.974;2023-02-01T05:07:07;13.53;;;3.00;;
31061;SDS011;17724;53.546;9.974;2023-02-01T05:11:07;11.43;;;2.03;;
31061;SDS011;17724;53.546;9.974;2023-02-01T05:15:28;12.40;;;2.00;;
31061;SDS011;17724;53.546;9.974;2023-02-01T05:19:29;9.43;;;1.13;;
31061;SDS011;17724;53.546;9.974;2023-02-01T05:23:29;9.47;;;1.10;;
31061;SDS011;17724;53.546;9.974;2023-02-01T05:27:30;8.80;;;1.43;;
31061;SDS011;17724;53.546;9.974;2023-02-01T05:31:30;9.10;;;1.30;;
31061;SDS011;17724;53.546;9.974;2023-02-01T05:35:31;8.80;;;0.93;;
31061;SDS011;17724;53.546;9.974;2023-02-01T05:39:31;8.90;;;0.97;;
31061;SDS011;17724;53.546;9.974;2023-02-01T05:43:32;7.80;;;0.80;;
31061;SDS011;17724;53.546;9.974;2023-02-01T05:47:32;7.80;;;0.90;;
31061;SDS011;17724;53.546;9.974;2023-02-01T05:51:33;8.37;;;0.80;;
31061;SDS011;17724;53.546;9.974;2023-02-01T05:55:34;8.20;;;0.87;;
31061;SDS011;17724;53.546;9.974;2023-02-01T05:59:34;8.17;;;0.80;;
31061;SDS011;17724;53.546;9.974;2023-02-01T06:03:37;7.60;;;0.80;;
31061;SDS011;17724;53.546;9.974;2023-02-01T06:07:37;8.50;;;0.80;;
31061;SDS011;17724;53.546;9.974;2023-02-01T06:11:38;8.50;;;0.90;;
31061;SDS011;17724;53.546;9.974;2023-02-01T06:15:41;8.20;;;1.10;;
31061;SDS011;17724;53.546;9.974;2023-02-01T06:19:44;9.87;;;0.90;;
31061;SDS011;17724;53.546;9.974;2023-02-01T06:23:45;8.80;;;1.30;;
31061;SDS011;17724;53.546;9.974;2023-02-01T06:27:45;9.10;;;1.07;;
31061;SDS011;17724;53.546;9.974;2023-02-01T06:31:45;8.43;;;1.37;;
31061;SDS011;17724;53.546;9.974;2023-02-01T06:35:46;13.07;;;1.70;;
31061;SDS011;17724;53.546;9.974;2023-02-01T06:39:47;11.83;;;1.97;;
31061;SDS011;17724;53.546;9.974;2023-02-01T06:43:48;11.23;;;2.00;;
31061;SDS011;17724;53.546;9.974;2023-02-01T06:47:49;11.27;;;1.53;;
31061;SDS011;17724;53.546;9.974;2023-02-01T06:51:49;12.93;;;2.77;;
31061;SDS011;17724;53.546;9.974;2023-02-01T06:55:57;13.17;;;2.50;;
31061;SDS011;17724;53.546;9.974;2023-02-01T06:59:59;12.50;;;2.13;;
31061;SDS011;17724;53.546;9.974;2023-02-01T07:03:59;16.47;;;3.20;;
31061;SDS011;17724;53.546;9.974;2023-02-01T07:08:00;15.83;;;2.47;;
31061;SDS011;17724;53.546;9.974;2023-02-01T07:12:09;15.70;;;3.40;;
31061;SDS011;17724;53.546;9.974;2023-02-01T07:16:11;16.10;;;3.67;;
31061;SDS011;17724;53.546;9.974;2023-02-01T07:20:14;16.03;;;3.10;;
31061;SDS011;17724;53.546;9.974;2023-02-01T07:24:37;17.03;;;4.13;;
31061;SDS011;17724;53.546;9.974;2023-02-01T07:28:43;15.70;;;4.20;;
31061;SDS011;17724;53.546;9.974;2023-02-01T07:32:47;23.10;;;5.17;;
31061;SDS011;17724;53.546;9.974;2023-02-01T07:36:50;18.50;;;3.83;;
31061;SDS011;17724;53.546;9.974;2023-02-01T07:40:56;17.10;;;3.23;;
31061;SDS011;17724;53.546;9.974;2023-02-01T07:45:14;19.30;;;5.87;;
31061;SDS011;17724;53.546;9.974;2023-02-01T07:49:16;20.10;;;4.37;;
31061;SDS011;17724;53.546;9.974;2023-02-01T07:53:20;27.33;;;5.57;;
31061;SDS011;17724;53.546;9.974;2023-02-01T07:57:44;19.17;;;4.17;;
31061;SDS011;17724;53.546;9.974;2023-02-01T08:01:50;23.20;;;5.37;;
31061;SDS011;17724;53.546;9.974;2023-02-01T08:05:54;21.80;;;4.47;;
31061;SDS011;17724;53.546;9.974;2023-02-01T08:10:01;21.03;;;4.43;;
31061;SDS011;17724;53.546;9.974;2023-02-01T08:14:02;17.30;;;4.27;;
31061;SDS011;17724;53.546;9.974;2023-02-01T08:18:02;18.40;;;6.27;;
31061;SDS011;17724;53.546;9.974;2023-02-01T08:22:03;20.13;;;5.03;;
31061;SDS011;17724;53.546;9.974;2023-02-01T08:26:16;20.10;;;4.57;;
31061;SDS011;17724;53.546;9.974;2023-02-01T08:30:18;24.80;;;5.20;;
31061;SDS011;17724;53.546;9.974;2023-02-01T08:34:19;23.40;;;5.00;;
31061;SDS011;17724;53.546;9.974;2023-02-01T08:38:20;22.03;;;4.90;;
31061;SDS011;17724;53.546;9.974;2023-02-01T08:42:20;16.20;;;4.10;;
31061;SDS011;17724;53.546;9.974;2023-02-01T08:46:39;21.03;;;4.20;;
31061;SDS011;17724;53.546;9.974;2023-02-01T08:50:40;15.90;;;4.53;;
31061;SDS011;17724;53.546;9.974;2023-02-01T08:54:40;20.37;;;4.87;;
31061;SDS011;17724;53.546;9.974;2023-02-01T08:58:42;19.57;;;4.50;;
31061;SDS011;17724;53.546;9.974;2023-02-01T09:02:42;20.90;;;4.43;;
31061;SDS011;17724;53.546;9.974;2023-02-01T09:06:43;22.63;;;4.87;;
31061;SDS011;17724;53.546;9.974;2023-02-01T09:10:44;18.20;;;4.10;;
31061;SDS011;17724;53.546;9.974;2023-02-01T09:14:44;23.10;;;5.20;;
31061;SDS011;17724;53.546;9.974;2023-02-01T09:18:45;23.33;;;5.10;;
31061;SDS011;17724;53.546;9.974;2023-02-01T09:22:45;21.37;;;5.07;;
31061;SDS011;17724;53.546;9.974;2023-02-01T09:26:47;17.23;;;4.20;;
31061;SDS011;17724;53.546;9.974;2023-02-01T09:30:47;16.83;;;4.10;;
31061;SDS011;17724;53.546;9.974;2023-02-01T09:34:49;23.40;;;4.20;;
31061;SDS011;17724;53.546;9.974;2023-02-01T09:38:50;21.93;;;4.40;;
31061;SDS011;17724;53.546;9.974;2023-02-01T09:47:19;22.57;;;4.60;;
31061;SDS011;17724;53.546;9.974;2023-02-01T09:51:24;22.53;;;4.40;;
31061;SDS011;17724;53.546;9.974;2023-02-01T09:59:41;21.43;;;5.57;;
31061;SDS011;17724;53.546;9.974;2023-02-01T10:03:44;17.90;;;3.77;;
31061;SDS011;17724;53.546;9.974;2023-02-01T10:08:10;21.13;;;4.67;;
31061;SDS011;17724;53.546;9.974;2023-02-01T10:21:31;16.93;;;4.20;;
31061;SDS011;17724;53.546;9.974;2023-02-01T10:25:41;19.40;;;5.20;;
31061;SDS011;17724;53.546;9.974;2023-02-01T10:29:54;22.07;;;3.37;;
31061;SDS011;17724;53.546;9.974;2023-02-01T10:33:59;14.10;;;3.37;;
31061;SDS011;17724;53.546;9.974;2023-02-01T10:38:01;15.83;;;3.87;;
31061;SDS011;17724;53.546;9.974;2023-02-01T10:42:03;16.30;;;4.00;;
31061;SDS011;17724;53.546;9.974;2023-02-01T10:46:05;16.83;;;3.77;;
31061;SDS011;17724;53.546;9.974;2023-02-01T10:54:51;14.50;;;3.90;;
31061;SDS011;17724;53.546;9.974;2023-02-01T10:58:35;20.97;;;3.83;;
31061;SDS011;17724;53.546;9.974;2023-02-01T11:02:42;13.80;;;3.67;;
31061;SDS011;17724;53.546;9.974;2023-02-01T11:06:46;20.63;;;4.70;;
31061;SDS011;17724;53.546;9.974;2023-02-01T11:10:58;19.03;;;4.60;;
31061;SDS011;17724;53.546;9.974;2023-02-01T11:15:02;21.53;;;6.40;;
31061;SDS011;17724;53.546;9.974;2023-02-01T11:19:04;17.80;;;3.70;;
31061;SDS011;17724;53.546;9.974;2023-02-01T11:23:08;18.17;;;3.10;;
31061;SDS011;17724;53.546;9.974;2023-02-01T11:27:33;17.60;;;3.30;;
31061;SDS011;17724;53.546;9.974;2023-02-01T11:31:34;16.07;;;3.60;;
31061;SDS011;17724;53.546;9.974;2023-02-01T11:35:37;16.30;;;3.00;;
31061;SDS011;17724;53.546;9.974;2023-02-01T11:39:39;18.83;;;4.20;;
31061;SDS011;17724;53.546;9.974;2023-02-01T11:43:53;13.47;;;3.53;;
31061;SDS011;17724;53.546;9.974;2023-02-01T11:47:57;16.00;;;3.90;;
31061;SDS011;17724;53.546;9.974;2023-02-01T11:52:13;16.80;;;3.50;;
31061;SDS011;17724;53.546;9.974;2023-02-01T12:14:08;15.90;;;3.87;;
31061;SDS011;17724;53.546;9.974;2023-02-01T12:23:50;17.07;;;2.70;;
31061;SDS011;17724;53.546;9.974;2023-02-01T12:32:09;11.97;;;2.30;;
31061;SDS011;17724;53.546;9.974;2023-02-01T12:36:32;13.10;;;1.80;;
31061;SDS011;17724;53.546;9.974;2023-02-01T12:45:14;8.97;;;1.17;;
31061;SDS011;17724;53.546;9.974;2023-02-01T12:49:22;7.93;;;0.83;;
31061;SDS011;17724;53.546;9.974;2023-02-01T12:57:33;9.07;;;0.90;;
31061;SDS011;17724;53.546;9.974;2023-02-01T13:01:39;8.47;;;1.10;;
31061;SDS011;17724;53.546;9.974;2023-02-01T13:10:45;8.27;;;1.40;;
31061;SDS011;17724;53.546;9.974;2023-02-01T13:15:39;8.20;;;1.30;;
31061;SDS011;17724;53.546;9.974;2023-02-01T13:19:22;7.57;;;0.60;;
31061;SDS011;17724;53.546;9.974;2023-02-01T13:23:30;7.60;;;0.73;;
31061;SDS011;17724;53.546;9.974;2023-02-01T13:27:35;7.90;;;0.90;;
31061;SDS011;17724;53.546;9.974;2023-02-01T13:44:39;9.60;;;1.50;;
31061;SDS011;17724;53.546;9.974;2023-02-01T13:48:52;9.57;;;1.07;;
31061;SDS011;17724;53.546;9.974;2023-02-01T13:53:02;8.50;;;1.00;;
31061;SDS011;17724;53.546;9.974;2023-02-01T14:02:48;9.93;;;1.03;;
31061;SDS011;17724;53.546;9.974;2023-02-01T14:06:41;9.47;;;1.10;;
31061;SDS011;17724;53.546;9.974;2023-02-01T14:14:51;11.30;;;1.40;;
31061;SDS011;17724;53.546;9.974;2023-02-01T14:19:26;8.77;;;1.10;;
31061;SDS011;17724;53.546;9.974;2023-02-01T14:23:28;10.93;;;2.17;;
31061;SDS011;17724;53.546;9.974;2023-02-01T14:27:30;13.70;;;2.70;;
31061;SDS011;17724;53.546;9.974;2023-02-01T14:31:40;11.53;;;2.17;;
31061;SDS011;17724;53.546;9.974;2023-02-01T14:35:41;12.30;;;1.90;;
31061;SDS011;17724;53.546;9.974;2023-02-01T14:43:49;12.60;;;3.40;;
31061;SDS011;17724;53.546;9.974;2023-02-01T14:52:09;27.40;;;14.40;;
31061;SDS011;17724;53.546;9.974;2023-02-01T14:56:15;26.27;;;13.27;;
31061;SDS011;17724;53.546;9.974;2023-02-01T15:00:22;22.13;;;8.97;;
31061;SDS011;17724;53.546;9.974;2023-02-01T15:04:24;12.50;;;3.13;;
31061;SDS011;17724;53.546;9.974;2023-02-01T15:08:28;14.27;;;3.30;;
31061;SDS011;17724;53.546;9.974;2023-02-01T15:12:31;15.00;;;3.40;;
31061;SDS011;17724;53.546;9.974;2023-02-01T15:16:33;16.90;;;2.70;;
31061;SDS011;17724;53.546;9.974;2023-02-01T15:20:33;13.40;;;4.00;;
31061;SDS011;17724;53.546;9.974;2023-02-01T15:24:33;13.60;;;3.17;;
31061;SDS011;17724;53.546;9.974;2023-02-01T15:28:34;13.57;;;2.60;;
31061;SDS011;17724;53.546;9.974;2023-02-01T15:32:36;11.80;;;2.63;;
31061;SDS011;17724;53.546;9.974;2023-02-01T15:36:39;15.03;;;2.47;;
31061;SDS011;17724;53.546;9.974;2023-02-01T15:40:52;15.10;;;2.73;;
31061;SDS011;17724;53.546;9.974;2023-02-01T15:44:54;16.80;;;2.47;;
31061;SDS011;17724;53.546;9.974;2023-02-01T15:48:55;9.47;;;2.03;;
31061;SDS011;17724;53.546;9.974;2023-02-01T15:52:56;16.73;;;2.90;;
31061;SDS011;17724;53.546;9.974;2023-02-01T15:56:57;15.80;;;3.13;;
31061;SDS011;17724;53.546;9.974;2023-02-01T16:01:01;15.23;;;5.90;;
31061;SDS011;17724;53.546;9.974;2023-02-01T16:05:05;21.43;;;5.83;;
31061;SDS011;17724;53.546;9.974;2023-02-01T16:09:37;16.90;;;5.03;;
31061;SDS011;17724;53.546;9.974;2023-02-01T16:13:39;16.93;;;4.60;;
31061;SDS011;17724;53.546;9.974;2023-02-01T16:17:41;16.23;;;5.13;;
31061;SDS011;17724;53.546;9.974;2023-02-01T16:21:43;23.20;;;5.47;;
31061;SDS011;17724;53.546;9.974;2023-02-01T16:25:44;13.50;;;3.17;;
31061;SDS011;17724;53.546;9.974;2023-02-01T16:29:44;18.50;;;3.67;;
31061;SDS011;17724;53.546;9.974;2023-02-01T16:33:48;13.07;;;3.37;;
31061;SDS011;17724;53.546;9.974;2023-02-01T16:37:50;20.90;;;4.90;;
31061;SDS011;17724;53.546;9.974;2023-02-01T16:41:51;20.70;;;5.60;;
31061;SDS011;17724;53.546;9.974;2023-02-01T16:45:52;16.87;;;3.90;;
31061;SDS011;17724;53.546;9.974;2023-02-01T16:49:54;20.93;;;4.07;;
31061;SDS011;17724;53.546;9.974;2023-02-01T16:53:55;17.60;;;4.03;;
31061;SDS011;17724;53.546;9.974;2023-02-01T16:57:55;25.83;;;6.70;;
31061;SDS011;17724;53.546;9.974;2023-02-01T17:01:56;19.57;;;7.07;;
31061;SDS011;17724;53.546;9.974;2023-02-01T17:05:56;26.87;;;9.87;;
31061;SDS011;17724;53.546;9.974;2023-02-01T17:09:58;24.20;;;9.03;;
31061;SDS011;17724;53.546;9.974;2023-02-01T17:14:17;25.70;;;7.77;;
31061;SDS011;17724;53.546;9.974;2023-02-01T17:18:20;20.67;;;5.90;;
31061;SDS011;17724;53.546;9.974;2023-02-01T17:22:21;23.10;;;6.63;;
31061;SDS011;17724;53.546;9.974;2023-02-01T17:26:22;27.40;;;6.87;;
31061;SDS011;17724;53.546;9.974;2023-02-01T17:30:26;22.93;;;6.90;;
31061;SDS011;17724;53.546;9.974;2023-02-01T17:34:27;22.43;;;6.33;;
31061;SDS011;17724;53.546;9.974;2023-02-01T17:38:28;24.17;;;5.93;;
31061;SDS011;17724;53.546;9.974;2023-02-01T17:42:28;45.53;;;19.57;;
31061;SDS011;17724;53.546;9.974;2023-02-01T17:46:30;32.63;;;15.10;;
31061;SDS011;17724;53.546;9.974;2023-02-01T17:50:31;23.73;;;7.60;;
31061;SDS011;17724;53.546;9.974;2023-02-01T17:54:35;40.83;;;19.80;;
31061;SDS011;17724;53.546;9.974;2023-02-01T17:58:35;35.20;;;17.30;;
31061;SDS011;17724;53.546;9.974;2023-02-01T18:02:36;25.20;;;8.10;;
31061;SDS011;17724;53.546;9.974;2023-02-01T18:06:36;35.00;;;15.13;;
31061;SDS011;17724;53.546;9.974;2023-02-01T18:10:37;23.93;;;7.93;;
31061;SDS011;17724;53.546;9.974;2023-02-01T18:14:37;21.27;;;7.27;;
31061;SDS011;17724;53.546;9.974;2023-02-01T18:18:38;50.37;;;28.03;;
31061;SDS011;17724;53.546;9.974;2023-02-01T18:22:38;37.77;;;17.70;;
31061;SDS011;17724;53.546;9.974;2023-02-01T18:26:39;28.73;;;11.50;;
31061;SDS011;17724;53.546;9.974;2023-02-01T18:30:40;24.83;;;9.37;;
31061;SDS011;17724;53.546;9.974;2023-02-01T18:34:43;21.83;;;8.53;;
31061;SDS011;17724;53.546;9.974;2023-02-01T18:38:43;28.20;;;10.40;;
31061;SDS011;17724;53.546;9.974;2023-02-01T18:42:47;22.90;;;6.40;;
31061;SDS011;17724;53.546;9.974;2023-02-01T18:46:48;26.83;;;6.57;;
31061;SDS011;17724;53.546;9.974;2023-02-01T18:50:49;24.30;;;6.80;;
31061;SDS011;17724;53.546;9.974;2023-02-01T18:54:56;29.70;;;10.87;;
31061;SDS011;17724;53.546;9.974;2023-02-01T18:58:57;28.63;;;9.50;;
31061;SDS011;17724;53.546;9.974;2023-02-01T19:02:59;27.07;;;8.07;;
31061;SDS011;17724;53.546;9.974;2023-02-01T19:06:59;52.77;;;35.37;;
31061;SDS011;17724;53.546;9.974;2023-02-01T19:11:03;33.37;;;13.40;;
31061;SDS011;17724;53.546;9.974;2023-02-01T19:15:05;34.47;;;15.40;;
31061;SDS011;17724;53.546;9.974;2023-02-01T19:19:07;24.87;;;5.63;;
31061;SDS011;17724;53.546;9.974;2023-02-01T19:23:08;32.87;;;12.27;;
31061;SDS011;17724;53.546;9.974;2023-02-01T19:27:08;28.30;;;12.23;;
31061;SDS011;17724;53.546;9.974;2023-02-01T19:31:09;28.27;;;8.50;;
31061;SDS011;17724;53.546;9.974;2023-02-01T19:35:11;22.40;;;7.70;;
31061;SDS011;17724;53.546;9.974;2023-02-01T19:39:13;25.63;;;8.20;;
31061;SDS011;17724;53.546;9.974;2023-02-01T19:43:13;20.17;;;7.00;;
31061;SDS011;17724;53.546;9.974;2023-02-01T19:47:14;23.97;;;6.60;;
31061;SDS011;17724;53.546;9.974;2023-02-01T19:51:14;24.07;;;8.57;;
31061;SDS011;17724;53.546;9.974;2023-02-01T19:55:15;19.20;;;5.40;;
31061;SDS011;17724;53.546;9.974;2023-02-01T19:59:16;20.93;;;6.20;;
31061;SDS011;17724;53.546;9.974;2023-02-01T20:03:18;18.73;;;5.40;;
31061;SDS011;17724;53.546;9.974;2023-02-01T20:07:18;21.23;;;5.20;;
31061;SDS011;17724;53.546;9.974;2023-02-01T20:11:19;20.00;;;5.90;;
31061;SDS011;17724;53.546;9.974;2023-02-01T20:15:19;24.70;;;8.43;;
31061;SDS011;17724;53.546;9.974;2023-02-01T20:19:22;29.40;;;8.67;;
31061;SDS011;17724;53.546;9.974;2023-02-01T20:23:22;25.70;;;8.30;;
31061;SDS011;17724;53.546;9.974;2023-02-01T20:27:23;23.30;;;6.43;;
31061;SDS011;17724;53.546;9.974;2023-02-01T20:31:24;26.03;;;10.73;;
31061;SDS011;17724;53.546;9.974;2023-02-01T20:35:27;39.70;;;16.80;;
31061;SDS011;17724;53.546;9.974;2023-02-01T20:39:28;27.40;;;10.57;;
31061;SDS011;17724;53.546;9.974;2023-02-01T20:43:29;67.60;;;36.17;;
31061;SDS011;17724;53.546;9.974;2023-02-01T20:47:29;41.77;;;17.10;;
31061;SDS011;17724;53.546;9.974;2023-02-01T20:51:30;27.73;;;11.60;;
31061;SDS011;17724;53.546;9.974;2023-02-01T20:55:30;42.73;;;19.93;;
31061;SDS011;17724;53.546;9.974;2023-02-01T20:59:31;42.43;;;24.17;;
31061;SDS011;17724;53.546;9.974;2023-02-01T21:03:32;34.73;;;11.37;;
31061;SDS011;17724;53.546;9.974;2023-02-01T21:07:35;34.73;;;16.13;;
31061;SDS011;17724;53.546;9.974;2023-02-01T21:11:36;44.37;;;19.83;;
31061;SDS011;17724;53.546;9.974;2023-02-01T21:15:36;28.43;;;9.07;;
31061;SDS011;17724;53.546;9.974;2023-02-01T21:19:37;25.77;;;6.27;;
31061;SDS011;17724;53.546;9.974;2023-02-01T21:23:43;26.77;;;8.23;;
31061;SDS011;17724;53.546;9.974;2023-02-01T21:27:44;26.47;;;9.90;;
31061;SDS011;17724;53.546;9.974;2023-02-01T21:31:44;19.50;;;5.77;;
31061;SDS011;17724;53.546;9.974;2023-02-01T21:35:44;20.00;;;6.30;;
31061;SDS011;17724;53.546;9.974;2023-02-01T21:39:49;23.87;;;5.40;;
31061;SDS011;17724;53.546;9.974;2023-02-01T21:43:49;32.50;;;10.40;;
31061;SDS011;17724;53.546;9.974;2023-02-01T21:47:50;25.53;;;5.83;;
31061;SDS011;17724;53.546;9.974;2023-02-01T21:51:51;22.20;;;4.50;;
31061;SDS011;17724;53.546;9.974;2023-02-01T21:55:51;24.17;;;4.87;;
31061;SDS011;17724;53.546;9.974;2023-02-01T21:59:52;25.30;;;5.73;;
31061;SDS011;17724;53.546;9.974;2023-02-01T22:03:52;26.60;;;4.77;;
31061;SDS011;17724;53.546;9.974;2023-02-01T22:07:53;25.00;;;4.70;;
31061;SDS011;17724;53.546;9.974;2023-02-01T22:11:53;23.97;;;5.00;;
31061;SDS011;17724;53.546;9.974;2023-02-01T22:15:54;29.13;;;4.33;;
31061;SDS011;17724;53.546;9.974;2023-02-01T22:19:56;18.50;;;4.50;;
31061;SDS011;17724;53.546;9.974;2023-02-01T22:23:56;21.60;;;4.90;;
31061;SDS011;17724;53.546;9.974;2023-02-01T22:27:58;27.80;;;5.37;;
31061;SDS011;17724;53.546;9.974;2023-02-01T22:31:58;19.23;;;3.70;;
31061;SDS011;17724;53.546;9.974;2023-02-01T22:35:59;23.07;;;5.23;;
31061;SDS011;17724;53.546;9.974;2023-02-01T22:40:00;26.67;;;6.10;;
31061;SDS011;17724;53.546;9.974;2023-02-01T22:44:03;23.50;;;5.50;;
31061;SDS011;17724;53.546;9.974;2023-02-01T22:48:04;23.40;;;5.00;;
31061;SDS011;17724;53.546;9.974;2023-02-01T22:52:05;31.87;;;5.40;;
31061;SDS011;17724;53.546;9.974;2023-02-01T22:56:06;27.17;;;6.43;;
31061;SDS011;17724;53.546;9.974;2023-02-01T23:00:07;23.77;;;4.43;;
31061;SDS011;17724;53.546;9.974;2023-02-01T23:04:09;26.80;;;5.80;;
31061;SDS011;17724;53.546;9.974;2023-02-01T23:08:11;26.10;;;6.43;;
31061;SDS011;17724;53.546;9.974;2023-02-01T23:12:12;22.57;;;4.47;;
31061;SDS011;17724;53.546;9.974;2023-02-01T23:16:12;25.37;;;4.50;;
31061;SDS011;17724;53.546;9.974;2023-02-01T23:20:14;21.97;;;4.43;;
31061;SDS011;17724;53.546;9.974;2023-02-01T23:24:16;31.90;;;5.33;;
31061;SDS011;17724;53.546;9.974;2023-02-01T23:28:16;21.30;;;5.10;;
31061;SDS011;17724;53.546;9.974;2023-02-01T23:32:18;27.43;;;9.43;;
31061;SDS011;17724;53.546;9.974;2023-02-01T23:36:19;20.80;;;5.10;;
31061;SDS011;17724;53.546;9.974;2023-02-01T23:40:20;19.57;;;5.33;;
31061;SDS011;17724;53.546;9.974;2023-02-01T23:44:21;22.27;;;4.57;;
31061;SDS011;17724;53.546;9.974;2023-02-01T23:48:21;22.93;;;5.60;;
31061;SDS011;17724;53.546;9.974;2023-02-01T23:52:22;20.43;;;4.27;;
31061;SDS011;17724;53.546;9.974;2023-02-01T23:56:23;22.97;;;4.70;;
